sensor_id;sensor_type;location;lat;lon;timestamp;P1;durP1;ratioP1;P2;durP2;ratioP2
71562;SDS011;59391;52.504;13.438;2023-08-08T00:01:03;7.87;;;3.30;;
71562;SDS011;59391;52.504;13.438;2023-08-08T00:03:28;7.60;;;3.20;;
71562;SDS011;59391;52.504;13.438;2023-08-08T00:05:54;6.80;;;3.23;;
71562;SDS011;59391;52.504;13.438;2023-08-08T00:08:20;8.40;;;3.40;;
71562;SDS011;59391;52.504;13.438;2023-08-08T00:10:45;7.35;;;3.33;;
71562;SDS011;59391;52.504;13.438;2023-08-08T00:13:11;6.83;;;3.20;;
71562;SDS011;59391;52.504;13.438;2023-08-08T00:15:36;9.50;;;3.00;;
71562;SDS011;59391;52.504;13.438;2023-08-08T00:18:02;7.57;;;3.23;;
71562;SDS011;59391;52.504;13.438;2023-08-08T00:20:28;8.80;;;3.30;;
71562;SDS011;59391;52.504;13.438;2023-08-08T00:22:54;7.53;;;3.10;;
71562;SDS011;59391;52.504;13.438;2023-08-08T00:25:19;5.13;;;2.78;;
71562;SDS011;59391;52.504;13.438;2023-08-08T00:27:45;7.10;;;3.30;;
71562;SDS011;59391;52.504;13.438;2023-08-08T00:30:11;8.48;;;3.30;;
71562;SDS011;59391;52.504;13.438;2023-08-08T00:32:40;7.18;;;3.67;;
71562;SDS011;59391;52.504;13.438;2023-08-08T00:35:06;6.13;;;3.42;;
71562;SDS011;59391;52.504;13.438;2023-08-08T00:37:32;6.20;;;3.22;;
71562;SDS011;59391;52.504;13.438;2023-08-08T00:39:58;8.93;;;3.50;;
71562;SDS011;59391;52.504;13.438;2023-08-08T00:42:24;6.50;;;3.30;;
71562;SDS011;59391;52.504;13.438;2023-08-08T00:44:49;5.63;;;2.83;;
71562;SDS011;59391;52.504;13.438;2023-08-08T00:47:15;7.63;;;3.03;;
71562;SDS011;59391;52.504;13.438;2023-08-08T00:49:40;7.88;;;3.83;;
71562;SDS011;59391;52.504;13.438;2023-08-08T00:52:08;5.05;;;3.00;;
71562;SDS011;59391;52.504;13.438;2023-08-08T00:54:35;6.45;;;3.20;;
71562;SDS011;59391;52.504;13.438;2023-08-08T00:57:00;6.90;;;3.37;;
71562;SDS011;59391;52.504;13.438;2023-08-08T00:59:26;5.97;;;3.22;;
71562;SDS011;59391;52.504;13.438;2023-08-08T01:01:52;7.65;;;3.30;;
71562;SDS011;59391;52.504;13.438;2023-08-08T01:04:18;5.22;;;2.90;;
71562;SDS011;59391;52.504;13.438;2023-08-08T01:10:03;5.87;;;3.13;;
71562;SDS011;59391;52.504;13.438;2023-08-08T01:12:46;6.03;;;2.72;;
71562;SDS011;59391;52.504;13.438;2023-08-08T01:15:19;6.00;;;3.20;;
71562;SDS011;59391;52.504;13.438;2023-08-08T01:17:46;6.45;;;3.00;;
71562;SDS011;59391;52.504;13.438;2023-08-08T01:20:13;6.57;;;3.30;;
71562;SDS011;59391;52.504;13.438;2023-08-08T01:22:45;5.43;;;3.10;;
71562;SDS011;59391;52.504;13.438;2023-08-08T01:25:23;8.27;;;3.30;;
71562;SDS011;59391;52.504;13.438;2023-08-08T01:27:49;6.90;;;3.30;;
71562;SDS011;59391;52.504;13.438;2023-08-08T01:30:15;7.00;;;2.93;;
71562;SDS011;59391;52.504;13.438;2023-08-08T01:32:40;5.57;;;2.92;;
71562;SDS011;59391;52.504;13.438;2023-08-08T01:35:06;6.63;;;3.10;;
71562;SDS011;59391;52.504;13.438;2023-08-08T01:37:35;5.30;;;2.95;;
71562;SDS011;59391;52.504;13.438;2023-08-08T01:40:06;6.68;;;2.92;;
71562;SDS011;59391;52.504;13.438;2023-08-08T01:42:35;6.23;;;2.80;;
71562;SDS011;59391;52.504;13.438;2023-08-08T01:45:01;5.85;;;2.80;;
71562;SDS011;59391;52.504;13.438;2023-08-08T01:47:27;7.20;;;2.80;;
71562;SDS011;59391;52.504;13.438;2023-08-08T01:49:53;6.30;;;2.83;;
71562;SDS011;59391;52.504;13.438;2023-08-08T01:52:18;6.78;;;2.78;;
71562;SDS011;59391;52.504;13.438;2023-08-08T01:54:44;5.10;;;2.73;;
71562;SDS011;59391;52.504;13.438;2023-08-08T01:57:10;7.65;;;2.85;;
71562;SDS011;59391;52.504;13.438;2023-08-08T01:59:35;5.60;;;2.60;;
71562;SDS011;59391;52.504;13.438;2023-08-08T02:02:01;7.20;;;2.83;;
71562;SDS011;59391;52.504;13.438;2023-08-08T02:04:26;5.22;;;2.80;;
71562;SDS011;59391;52.504;13.438;2023-08-08T02:06:52;6.87;;;3.10;;
71562;SDS011;59391;52.504;13.438;2023-08-08T02:09:18;5.03;;;2.70;;
71562;SDS011;59391;52.504;13.438;2023-08-08T02:11:43;6.60;;;2.90;;
71562;SDS011;59391;52.504;13.438;2023-08-08T02:14:09;6.27;;;3.23;;
71562;SDS011;59391;52.504;13.438;2023-08-08T02:16:34;6.35;;;2.83;;
71562;SDS011;59391;52.504;13.438;2023-08-08T02:19:00;6.00;;;3.07;;
71562;SDS011;59391;52.504;13.438;2023-08-08T02:21:26;6.53;;;3.20;;
71562;SDS011;59391;52.504;13.438;2023-08-08T02:23:51;5.47;;;3.00;;
71562;SDS011;59391;52.504;13.438;2023-08-08T02:26:17;4.78;;;3.08;;
71562;SDS011;59391;52.504;13.438;2023-08-08T02:28:43;8.03;;;3.07;;
71562;SDS011;59391;52.504;13.438;2023-08-08T02:31:09;5.70;;;3.20;;
71562;SDS011;59391;52.504;13.438;2023-08-08T02:33:34;6.63;;;2.93;;
71562;SDS011;59391;52.504;13.438;2023-08-08T02:36:00;6.87;;;2.97;;
71562;SDS011;59391;52.504;13.438;2023-08-08T02:38:25;5.70;;;3.40;;
71562;SDS011;59391;52.504;13.438;2023-08-08T02:40:51;7.07;;;3.23;;
71562;SDS011;59391;52.504;13.438;2023-08-08T02:43:17;5.13;;;2.88;;
71562;SDS011;59391;52.504;13.438;2023-08-08T02:45:43;7.00;;;3.33;;
71562;SDS011;59391;52.504;13.438;2023-08-08T02:48:09;6.77;;;3.03;;
71562;SDS011;59391;52.504;13.438;2023-08-08T02:50:34;6.37;;;3.10;;
71562;SDS011;59391;52.504;13.438;2023-08-08T02:53:00;6.30;;;3.22;;
71562;SDS011;59391;52.504;13.438;2023-08-08T02:55:25;7.27;;;3.60;;
71562;SDS011;59391;52.504;13.438;2023-08-08T02:57:51;6.10;;;3.30;;
71562;SDS011;59391;52.504;13.438;2023-08-08T03:00:17;9.00;;;3.57;;
71562;SDS011;59391;52.504;13.438;2023-08-08T03:02:42;5.85;;;3.30;;
71562;SDS011;59391;52.504;13.438;2023-08-08T03:05:08;5.43;;;2.83;;
71562;SDS011;59391;52.504;13.438;2023-08-08T03:07:34;6.63;;;3.10;;
71562;SDS011;59391;52.504;13.438;2023-08-08T03:09:59;6.28;;;3.40;;
71562;SDS011;59391;52.504;13.438;2023-08-08T03:12:25;5.50;;;3.33;;
71562;SDS011;59391;52.504;13.438;2023-08-08T03:14:51;7.10;;;3.42;;
71562;SDS011;59391;52.504;13.438;2023-08-08T03:17:16;5.83;;;3.33;;
71562;SDS011;59391;52.504;13.438;2023-08-08T03:19:42;7.22;;;3.45;;
71562;SDS011;59391;52.504;13.438;2023-08-08T03:22:08;4.73;;;2.97;;
71562;SDS011;59391;52.504;13.438;2023-08-08T03:24:34;8.00;;;3.28;;
71562;SDS011;59391;52.504;13.438;2023-08-08T03:27:00;6.23;;;3.77;;
71562;SDS011;59391;52.504;13.438;2023-08-08T03:29:25;6.43;;;3.50;;
71562;SDS011;59391;52.504;13.438;2023-08-08T03:31:51;6.67;;;3.40;;
71562;SDS011;59391;52.504;13.438;2023-08-08T03:34:16;5.13;;;3.10;;
71562;SDS011;59391;52.504;13.438;2023-08-08T03:36:42;5.67;;;2.80;;
71562;SDS011;59391;52.504;13.438;2023-08-08T03:39:08;5.93;;;3.40;;
71562;SDS011;59391;52.504;13.438;2023-08-08T03:41:33;5.88;;;3.28;;
71562;SDS011;59391;52.504;13.438;2023-08-08T03:43:59;5.57;;;3.10;;
71562;SDS011;59391;52.504;13.438;2023-08-08T03:46:25;10.45;;;3.20;;
71562;SDS011;59391;52.504;13.438;2023-08-08T03:48:51;6.50;;;3.13;;
71562;SDS011;59391;52.504;13.438;2023-08-08T03:51:16;5.13;;;3.42;;
71562;SDS011;59391;52.504;13.438;2023-08-08T03:53:42;5.93;;;3.00;;
71562;SDS011;59391;52.504;13.438;2023-08-08T03:56:07;5.63;;;3.13;;
71562;SDS011;59391;52.504;13.438;2023-08-08T03:58:33;6.77;;;3.30;;
71562;SDS011;59391;52.504;13.438;2023-08-08T04:00:59;6.88;;;3.50;;
71562;SDS011;59391;52.504;13.438;2023-08-08T04:03:24;5.90;;;3.03;;
71562;SDS011;59391;52.504;13.438;2023-08-08T04:05:50;6.30;;;3.50;;
71562;SDS011;59391;52.504;13.438;2023-08-08T04:08:15;6.47;;;3.15;;
71562;SDS011;59391;52.504;13.438;2023-08-08T04:10:42;7.32;;;3.22;;
71562;SDS011;59391;52.504;13.438;2023-08-08T04:13:12;7.27;;;3.30;;
71562;SDS011;59391;52.504;13.438;2023-08-08T04:15:37;6.60;;;3.40;;
71562;SDS011;59391;52.504;13.438;2023-08-08T04:18:03;7.87;;;3.57;;
71562;SDS011;59391;52.504;13.438;2023-08-08T04:20:31;5.85;;;3.67;;
71562;SDS011;59391;52.504;13.438;2023-08-08T04:22:58;6.80;;;3.40;;
71562;SDS011;59391;52.504;13.438;2023-08-08T04:25:24;7.60;;;3.40;;
71562;SDS011;59391;52.504;13.438;2023-08-08T04:27:49;7.00;;;3.50;;
71562;SDS011;59391;52.504;13.438;2023-08-08T04:30:15;6.13;;;3.23;;
71562;SDS011;59391;52.504;13.438;2023-08-08T04:32:40;6.75;;;3.13;;
71562;SDS011;59391;52.504;13.438;2023-08-08T04:35:06;6.83;;;3.33;;
71562;SDS011;59391;52.504;13.438;2023-08-08T04:37:32;6.75;;;3.63;;
71562;SDS011;59391;52.504;13.438;2023-08-08T04:39:57;7.00;;;3.43;;
71562;SDS011;59391;52.504;13.438;2023-08-08T04:42:23;5.80;;;3.40;;
71562;SDS011;59391;52.504;13.438;2023-08-08T04:44:49;6.18;;;3.22;;
71562;SDS011;59391;52.504;13.438;2023-08-08T04:47:14;6.00;;;3.27;;
71562;SDS011;59391;52.504;13.438;2023-08-08T04:49:40;6.40;;;3.60;;
71562;SDS011;59391;52.504;13.438;2023-08-08T04:52:05;5.90;;;3.53;;
71562;SDS011;59391;52.504;13.438;2023-08-08T04:54:31;9.33;;;3.43;;
71562;SDS011;59391;52.504;13.438;2023-08-08T04:56:56;5.75;;;3.20;;
71562;SDS011;59391;52.504;13.438;2023-08-08T04:59:23;6.80;;;3.43;;
71562;SDS011;59391;52.504;13.438;2023-08-08T05:01:48;5.65;;;3.15;;
71562;SDS011;59391;52.504;13.438;2023-08-08T05:04:14;5.80;;;3.50;;
71562;SDS011;59391;52.504;13.438;2023-08-08T05:06:39;9.48;;;3.90;;
71562;SDS011;59391;52.504;13.438;2023-08-08T05:09:05;6.97;;;3.50;;
71562;SDS011;59391;52.504;13.438;2023-08-08T05:11:34;5.78;;;3.40;;
71562;SDS011;59391;52.504;13.438;2023-08-08T05:14:00;7.05;;;3.58;;
71562;SDS011;59391;52.504;13.438;2023-08-08T05:16:26;6.23;;;3.67;;
71562;SDS011;59391;52.504;13.438;2023-08-08T05:18:52;8.65;;;3.60;;
71562;SDS011;59391;52.504;13.438;2023-08-08T05:21:17;6.50;;;3.73;;
71562;SDS011;59391;52.504;13.438;2023-08-08T05:23:44;5.45;;;3.35;;
71562;SDS011;59391;52.504;13.438;2023-08-08T05:26:09;7.63;;;3.23;;
71562;SDS011;59391;52.504;13.438;2023-08-08T05:28:35;7.47;;;3.22;;
71562;SDS011;59391;52.504;13.438;2023-08-08T05:31:00;8.27;;;3.67;;
71562;SDS011;59391;52.504;13.438;2023-08-08T05:33:26;5.00;;;3.50;;
71562;SDS011;59391;52.504;13.438;2023-08-08T05:35:52;7.00;;;3.40;;
71562;SDS011;59391;52.504;13.438;2023-08-08T05:38:17;6.47;;;3.60;;
71562;SDS011;59391;52.504;13.438;2023-08-08T05:40:43;6.38;;;3.58;;
71562;SDS011;59391;52.504;13.438;2023-08-08T05:43:08;6.07;;;3.63;;
71562;SDS011;59391;52.504;13.438;2023-08-08T05:45:34;5.25;;;3.22;;
71562;SDS011;59391;52.504;13.438;2023-08-08T05:48:00;5.20;;;3.23;;
71562;SDS011;59391;52.504;13.438;2023-08-08T05:50:26;5.43;;;3.60;;
71562;SDS011;59391;52.504;13.438;2023-08-08T05:52:53;7.78;;;3.78;;
71562;SDS011;59391;52.504;13.438;2023-08-08T05:55:19;6.57;;;3.50;;
71562;SDS011;59391;52.504;13.438;2023-08-08T05:57:44;7.10;;;3.53;;
71562;SDS011;59391;52.504;13.438;2023-08-08T06:00:10;5.32;;;3.15;;
71562;SDS011;59391;52.504;13.438;2023-08-08T06:02:37;5.90;;;3.28;;
71562;SDS011;59391;52.504;13.438;2023-08-08T06:05:03;6.93;;;3.50;;
71562;SDS011;59391;52.504;13.438;2023-08-08T06:07:30;5.88;;;3.40;;
71562;SDS011;59391;52.504;13.438;2023-08-08T06:09:56;6.78;;;3.75;;
71562;SDS011;59391;52.504;13.438;2023-08-08T06:12:21;6.97;;;3.27;;
71562;SDS011;59391;52.504;13.438;2023-08-08T06:14:47;8.32;;;3.67;;
71562;SDS011;59391;52.504;13.438;2023-08-08T06:17:13;6.77;;;3.70;;
71562;SDS011;59391;52.504;13.438;2023-08-08T06:19:39;6.28;;;3.88;;
71562;SDS011;59391;52.504;13.438;2023-08-08T06:22:05;6.30;;;3.58;;
71562;SDS011;59391;52.504;13.438;2023-08-08T06:24:31;6.30;;;3.50;;
71562;SDS011;59391;52.504;13.438;2023-08-08T06:26:56;7.47;;;4.03;;
71562;SDS011;59391;52.504;13.438;2023-08-08T06:29:22;6.33;;;3.63;;
71562;SDS011;59391;52.504;13.438;2023-08-08T06:31:48;6.75;;;3.60;;
71562;SDS011;59391;52.504;13.438;2023-08-08T06:34:13;5.22;;;3.83;;
71562;SDS011;59391;52.504;13.438;2023-08-08T06:36:40;6.80;;;3.38;;
71562;SDS011;59391;52.504;13.438;2023-08-08T06:39:06;7.30;;;3.57;;
71562;SDS011;59391;52.504;13.438;2023-08-08T06:41:31;7.15;;;3.50;;
71562;SDS011;59391;52.504;13.438;2023-08-08T06:43:57;6.57;;;3.63;;
71562;SDS011;59391;52.504;13.438;2023-08-08T06:46:23;6.23;;;3.47;;
71562;SDS011;59391;52.504;13.438;2023-08-08T06:48:49;6.05;;;3.70;;
71562;SDS011;59391;52.504;13.438;2023-08-08T06:51:17;6.25;;;3.40;;
71562;SDS011;59391;52.504;13.438;2023-08-08T06:53:43;6.10;;;3.77;;
71562;SDS011;59391;52.504;13.438;2023-08-08T06:56:09;8.30;;;3.90;;
71562;SDS011;59391;52.504;13.438;2023-08-08T06:58:34;7.75;;;3.28;;
71562;SDS011;59391;52.504;13.438;2023-08-08T07:01:00;5.03;;;3.60;;
71562;SDS011;59391;52.504;13.438;2023-08-08T07:03:25;6.57;;;3.63;;
71562;SDS011;59391;52.504;13.438;2023-08-08T07:05:51;6.93;;;3.90;;
71562;SDS011;59391;52.504;13.438;2023-08-08T07:08:17;5.30;;;3.63;;
71562;SDS011;59391;52.504;13.438;2023-08-08T07:10:45;7.50;;;3.90;;
71562;SDS011;59391;52.504;13.438;2023-08-08T07:13:10;6.45;;;3.70;;
71562;SDS011;59391;52.504;13.438;2023-08-08T07:15:36;5.83;;;3.33;;
71562;SDS011;59391;52.504;13.438;2023-08-08T07:18:03;5.40;;;3.50;;
71562;SDS011;59391;52.504;13.438;2023-08-08T07:20:29;7.38;;;3.92;;
71562;SDS011;59391;52.504;13.438;2023-08-08T07:22:55;6.80;;;3.57;;
71562;SDS011;59391;52.504;13.438;2023-08-08T07:25:20;6.70;;;4.07;;
71562;SDS011;59391;52.504;13.438;2023-08-08T07:27:46;7.23;;;3.83;;
71562;SDS011;59391;52.504;13.438;2023-08-08T07:30:11;6.82;;;3.83;;
71562;SDS011;59391;52.504;13.438;2023-08-08T07:32:38;6.50;;;3.80;;
71562;SDS011;59391;52.504;13.438;2023-08-08T07:35:03;6.57;;;3.22;;
71562;SDS011;59391;52.504;13.438;2023-08-08T07:37:31;7.95;;;4.30;;
71562;SDS011;59391;52.504;13.438;2023-08-08T07:39:58;6.67;;;3.67;;
71562;SDS011;59391;52.504;13.438;2023-08-08T07:42:23;5.55;;;3.63;;
71562;SDS011;59391;52.504;13.438;2023-08-08T07:44:49;5.83;;;3.40;;
71562;SDS011;59391;52.504;13.438;2023-08-08T07:47:15;6.25;;;3.55;;
71562;SDS011;59391;52.504;13.438;2023-08-08T07:49:40;8.63;;;3.97;;
71562;SDS011;59391;52.504;13.438;2023-08-08T07:52:06;7.38;;;3.58;;
71562;SDS011;59391;52.504;13.438;2023-08-08T07:54:32;5.88;;;3.40;;
71562;SDS011;59391;52.504;13.438;2023-08-08T07:56:59;7.10;;;4.00;;
71562;SDS011;59391;52.504;13.438;2023-08-08T07:59:25;5.80;;;3.80;;
71562;SDS011;59391;52.504;13.438;2023-08-08T08:01:50;6.90;;;3.47;;
71562;SDS011;59391;52.504;13.438;2023-08-08T08:04:16;5.70;;;3.40;;
71562;SDS011;59391;52.504;13.438;2023-08-08T08:06:41;5.23;;;3.13;;
71562;SDS011;59391;52.504;13.438;2023-08-08T08:09:07;6.38;;;3.97;;
71562;SDS011;59391;52.504;13.438;2023-08-08T08:11:33;6.60;;;3.80;;
71562;SDS011;59391;52.504;13.438;2023-08-08T08:13:58;6.60;;;3.60;;
71562;SDS011;59391;52.504;13.438;2023-08-08T08:16:24;7.63;;;4.13;;
71562;SDS011;59391;52.504;13.438;2023-08-08T08:18:50;6.78;;;3.67;;
71562;SDS011;59391;52.504;13.438;2023-08-08T08:21:16;5.63;;;3.63;;
71562;SDS011;59391;52.504;13.438;2023-08-08T08:23:42;5.85;;;3.80;;
71562;SDS011;59391;52.504;13.438;2023-08-08T08:26:09;5.65;;;3.47;;
71562;SDS011;59391;52.504;13.438;2023-08-08T08:28:35;5.40;;;3.40;;
71562;SDS011;59391;52.504;13.438;2023-08-08T08:31:04;6.00;;;3.40;;
71562;SDS011;59391;52.504;13.438;2023-08-08T08:33:30;6.45;;;3.65;;
71562;SDS011;59391;52.504;13.438;2023-08-08T08:35:56;7.50;;;3.67;;
71562;SDS011;59391;52.504;13.438;2023-08-08T08:38:22;5.30;;;3.57;;
71562;SDS011;59391;52.504;13.438;2023-08-08T08:40:47;6.03;;;3.47;;
71562;SDS011;59391;52.504;13.438;2023-08-08T08:43:14;5.25;;;3.08;;
71562;SDS011;59391;52.504;13.438;2023-08-08T08:45:42;5.80;;;3.20;;
71562;SDS011;59391;52.504;13.438;2023-08-08T08:48:15;6.35;;;3.60;;
71562;SDS011;59391;52.504;13.438;2023-08-08T08:50:43;5.75;;;3.38;;
71562;SDS011;59391;52.504;13.438;2023-08-08T08:53:12;6.40;;;3.53;;
71562;SDS011;59391;52.504;13.438;2023-08-08T08:55:40;7.53;;;3.80;;
71562;SDS011;59391;52.504;13.438;2023-08-08T08:58:06;7.60;;;3.60;;
71562;SDS011;59391;52.504;13.438;2023-08-08T09:00:32;6.03;;;3.13;;
71562;SDS011;59391;52.504;13.438;2023-08-08T09:02:59;7.32;;;3.60;;
71562;SDS011;59391;52.504;13.438;2023-08-08T09:05:26;5.53;;;3.58;;
71562;SDS011;59391;52.504;13.438;2023-08-08T09:07:52;10.65;;;3.58;;
71562;SDS011;59391;52.504;13.438;2023-08-08T09:10:18;5.80;;;3.50;;
71562;SDS011;59391;52.504;13.438;2023-08-08T09:12:44;5.43;;;3.28;;
71562;SDS011;59391;52.504;13.438;2023-08-08T09:15:13;5.78;;;3.45;;
71562;SDS011;59391;52.504;13.438;2023-08-08T09:17:42;5.18;;;3.15;;
71562;SDS011;59391;52.504;13.438;2023-08-08T09:20:11;7.25;;;3.50;;
71562;SDS011;59391;52.504;13.438;2023-08-08T09:22:38;6.23;;;3.50;;
71562;SDS011;59391;52.504;13.438;2023-08-08T09:25:05;5.03;;;3.28;;
71562;SDS011;59391;52.504;13.438;2023-08-08T09:27:31;5.80;;;3.42;;
71562;SDS011;59391;52.504;13.438;2023-08-08T09:29:57;6.40;;;3.30;;
71562;SDS011;59391;52.504;13.438;2023-08-08T09:32:23;7.25;;;3.30;;
71562;SDS011;59391;52.504;13.438;2023-08-08T09:34:55;6.57;;;3.30;;
71562;SDS011;59391;52.504;13.438;2023-08-08T09:37:22;6.18;;;3.20;;
71562;SDS011;59391;52.504;13.438;2023-08-08T09:39:55;7.57;;;3.50;;
71562;SDS011;59391;52.504;13.438;2023-08-08T09:42:23;5.70;;;3.38;;
71562;SDS011;59391;52.504;13.438;2023-08-08T09:44:51;5.80;;;3.50;;
71562;SDS011;59391;52.504;13.438;2023-08-08T09:47:16;5.50;;;3.40;;
71562;SDS011;59391;52.504;13.438;2023-08-08T09:49:42;7.13;;;4.37;;
71562;SDS011;59391;52.504;13.438;2023-08-08T09:52:09;6.47;;;3.50;;
71562;SDS011;59391;52.504;13.438;2023-08-08T09:54:36;5.90;;;3.38;;
71562;SDS011;59391;52.504;13.438;2023-08-08T09:57:04;4.72;;;2.85;;
71562;SDS011;59391;52.504;13.438;2023-08-08T09:59:31;6.57;;;3.47;;
71562;SDS011;59391;52.504;13.438;2023-08-08T10:01:58;7.55;;;3.88;;
71562;SDS011;59391;52.504;13.438;2023-08-08T10:04:24;7.93;;;3.53;;
71562;SDS011;59391;52.504;13.438;2023-08-08T10:06:51;6.43;;;3.70;;
71562;SDS011;59391;52.504;13.438;2023-08-08T10:09:17;7.55;;;3.90;;
71562;SDS011;59391;52.504;13.438;2023-08-08T10:11:43;5.30;;;3.80;;
71562;SDS011;59391;52.504;13.438;2023-08-08T10:14:10;6.93;;;4.25;;
71562;SDS011;59391;52.504;13.438;2023-08-08T10:16:38;6.97;;;3.80;;
71562;SDS011;59391;52.504;13.438;2023-08-08T10:19:06;7.18;;;4.15;;
71562;SDS011;59391;52.504;13.438;2023-08-08T10:21:37;6.33;;;4.40;;
71562;SDS011;59391;52.504;13.438;2023-08-08T10:24:09;5.68;;;3.90;;
71562;SDS011;59391;52.504;13.438;2023-08-08T10:26:56;5.72;;;4.07;;
71562;SDS011;59391;52.504;13.438;2023-08-08T10:29:25;6.00;;;4.18;;
71562;SDS011;59391;52.504;13.438;2023-08-08T10:31:57;6.63;;;3.90;;
71562;SDS011;59391;52.504;13.438;2023-08-08T10:34:41;6.67;;;4.17;;
71562;SDS011;59391;52.504;13.438;2023-08-08T10:37:09;8.52;;;4.32;;
71562;SDS011;59391;52.504;13.438;2023-08-08T10:39:37;6.00;;;4.10;;
71562;SDS011;59391;52.504;13.438;2023-08-08T10:42:23;6.82;;;4.30;;
71562;SDS011;59391;52.504;13.438;2023-08-08T10:44:52;5.80;;;4.07;;
71562;SDS011;59391;52.504;13.438;2023-08-08T10:47:23;5.33;;;3.60;;
71562;SDS011;59391;52.504;13.438;2023-08-08T10:50:02;4.97;;;3.33;;
71562;SDS011;59391;52.504;13.438;2023-08-08T10:55:25;5.72;;;3.78;;
71562;SDS011;59391;52.504;13.438;2023-08-08T11:00:38;7.37;;;4.30;;
71562;SDS011;59391;52.504;13.438;2023-08-08T11:03:05;6.13;;;4.03;;
71562;SDS011;59391;52.504;13.438;2023-08-08T11:05:32;5.88;;;4.38;;
71562;SDS011;59391;52.504;13.438;2023-08-08T11:08:01;7.80;;;4.57;;
71562;SDS011;59391;52.504;13.438;2023-08-08T11:10:29;6.22;;;4.70;;
71562;SDS011;59391;52.504;13.438;2023-08-08T11:13:02;6.40;;;3.90;;
71562;SDS011;59391;52.504;13.438;2023-08-08T11:15:34;6.38;;;4.15;;
71562;SDS011;59391;52.504;13.438;2023-08-08T11:18:02;8.27;;;4.45;;
71562;SDS011;59391;52.504;13.438;2023-08-08T11:20:29;6.75;;;4.50;;
71562;SDS011;59391;52.504;13.438;2023-08-08T11:22:56;6.32;;;3.90;;
71562;SDS011;59391;52.504;13.438;2023-08-08T11:25:25;6.33;;;3.83;;
71562;SDS011;59391;52.504;13.438;2023-08-08T11:27:52;5.55;;;4.18;;
71562;SDS011;59391;52.504;13.438;2023-08-08T11:30:19;6.25;;;4.43;;
71562;SDS011;59391;52.504;13.438;2023-08-08T11:32:47;5.07;;;3.63;;
71562;SDS011;59391;52.504;13.438;2023-08-08T11:35:24;4.85;;;3.13;;
71562;SDS011;59391;52.504;13.438;2023-08-08T11:37:52;3.90;;;2.73;;
71562;SDS011;59391;52.504;13.438;2023-08-08T11:40:20;4.15;;;2.80;;
71562;SDS011;59391;52.504;13.438;2023-08-08T11:42:48;5.47;;;3.10;;
71562;SDS011;59391;52.504;13.438;2023-08-08T11:45:16;4.90;;;3.30;;
71562;SDS011;59391;52.504;13.438;2023-08-08T11:47:42;3.90;;;2.75;;
71562;SDS011;59391;52.504;13.438;2023-08-08T11:50:08;4.50;;;2.53;;
71562;SDS011;59391;52.504;13.438;2023-08-08T11:52:39;4.47;;;3.10;;
71562;SDS011;59391;52.504;13.438;2023-08-08T11:55:08;5.07;;;2.70;;
71562;SDS011;59391;52.504;13.438;2023-08-08T11:57:35;4.60;;;3.20;;
71562;SDS011;59391;52.504;13.438;2023-08-08T12:00:08;4.83;;;3.00;;
71562;SDS011;59391;52.504;13.438;2023-08-08T12:02:39;5.55;;;3.38;;
71562;SDS011;59391;52.504;13.438;2023-08-08T12:05:07;5.38;;;3.28;;
71562;SDS011;59391;52.504;13.438;2023-08-08T12:07:36;5.43;;;3.53;;
71562;SDS011;59391;52.504;13.438;2023-08-08T12:10:05;6.07;;;3.92;;
71562;SDS011;59391;52.504;13.438;2023-08-08T12:12:37;6.10;;;3.70;;
71562;SDS011;59391;52.504;13.438;2023-08-08T12:15:06;6.05;;;3.88;;
71562;SDS011;59391;52.504;13.438;2023-08-08T12:17:33;5.03;;;3.50;;
71562;SDS011;59391;52.504;13.438;2023-08-08T12:20:02;6.50;;;4.00;;
71562;SDS011;59391;52.504;13.438;2023-08-08T12:22:30;6.03;;;3.83;;
71562;SDS011;59391;52.504;13.438;2023-08-08T12:24:57;6.70;;;4.10;;
71562;SDS011;59391;52.504;13.438;2023-08-08T12:27:23;5.72;;;3.65;;
71562;SDS011;59391;52.504;13.438;2023-08-08T12:29:48;5.30;;;3.73;;
71562;SDS011;59391;52.504;13.438;2023-08-08T12:32:14;5.28;;;3.45;;
71562;SDS011;59391;52.504;13.438;2023-08-08T12:34:40;7.57;;;3.90;;
71562;SDS011;59391;52.504;13.438;2023-08-08T12:37:05;5.70;;;3.80;;
71562;SDS011;59391;52.504;13.438;2023-08-08T12:39:31;6.47;;;3.67;;
71562;SDS011;59391;52.504;13.438;2023-08-08T12:41:57;5.67;;;3.50;;
71562;SDS011;59391;52.504;13.438;2023-08-08T12:44:22;5.30;;;3.20;;
71562;SDS011;59391;52.504;13.438;2023-08-08T12:46:48;5.03;;;3.10;;
71562;SDS011;59391;52.504;13.438;2023-08-08T12:49:14;4.68;;;3.10;;
71562;SDS011;59391;52.504;13.438;2023-08-08T12:51:40;5.15;;;3.58;;
71562;SDS011;59391;52.504;13.438;2023-08-08T12:54:05;5.77;;;3.43;;
71562;SDS011;59391;52.504;13.438;2023-08-08T12:56:31;5.80;;;3.70;;
71562;SDS011;59391;52.504;13.438;2023-08-08T12:58:57;7.20;;;3.83;;
71562;SDS011;59391;52.504;13.438;2023-08-08T13:01:23;5.28;;;3.55;;
71562;SDS011;59391;52.504;13.438;2023-08-08T13:03:50;6.63;;;4.38;;
71562;SDS011;59391;52.504;13.438;2023-08-08T13:06:15;6.80;;;4.40;;
71562;SDS011;59391;52.504;13.438;2023-08-08T13:08:41;7.07;;;4.43;;
71562;SDS011;59391;52.504;13.438;2023-08-08T13:11:07;7.93;;;4.37;;
71562;SDS011;59391;52.504;13.438;2023-08-08T13:13:33;8.18;;;3.90;;
71562;SDS011;59391;52.504;13.438;2023-08-08T13:15:58;7.30;;;4.23;;
71562;SDS011;59391;52.504;13.438;2023-08-08T13:18:24;5.55;;;3.40;;
71562;SDS011;59391;52.504;13.438;2023-08-08T13:20:50;5.93;;;3.60;;
71562;SDS011;59391;52.504;13.438;2023-08-08T13:23:15;6.87;;;3.60;;
71562;SDS011;59391;52.504;13.438;2023-08-08T13:25:41;6.82;;;4.00;;
71562;SDS011;59391;52.504;13.438;2023-08-08T13:28:06;6.07;;;3.60;;
71562;SDS011;59391;52.504;13.438;2023-08-08T13:30:33;4.95;;;3.20;;
71562;SDS011;59391;52.504;13.438;2023-08-08T13:33:00;6.43;;;3.40;;
71562;SDS011;59391;52.504;13.438;2023-08-08T13:35:26;7.57;;;3.87;;
71562;SDS011;59391;52.504;13.438;2023-08-08T13:37:51;7.13;;;3.85;;
71562;SDS011;59391;52.504;13.438;2023-08-08T13:40:19;8.48;;;3.72;;
71562;SDS011;59391;52.504;13.438;2023-08-08T13:42:45;6.20;;;3.57;;
71562;SDS011;59391;52.504;13.438;2023-08-08T13:45:13;6.28;;;3.20;;
71562;SDS011;59391;52.504;13.438;2023-08-08T13:47:39;7.10;;;3.60;;
71562;SDS011;59391;52.504;13.438;2023-08-08T13:50:05;6.37;;;3.43;;
71562;SDS011;59391;52.504;13.438;2023-08-08T13:52:32;5.15;;;3.10;;
71562;SDS011;59391;52.504;13.438;2023-08-08T13:54:58;5.47;;;3.80;;
71562;SDS011;59391;52.504;13.438;2023-08-08T13:57:24;4.57;;;2.67;;
71562;SDS011;59391;52.504;13.438;2023-08-08T13:59:50;3.55;;;2.40;;
71562;SDS011;59391;52.504;13.438;2023-08-08T14:02:16;5.10;;;2.33;;
71562;SDS011;59391;52.504;13.438;2023-08-08T14:04:45;5.40;;;2.70;;
71562;SDS011;59391;52.504;13.438;2023-08-08T14:07:10;5.32;;;2.50;;
71562;SDS011;59391;52.504;13.438;2023-08-08T14:09:36;4.47;;;3.20;;
71562;SDS011;59391;52.504;13.438;2023-08-08T14:12:02;5.53;;;3.40;;
71562;SDS011;59391;52.504;13.438;2023-08-08T14:14:28;7.18;;;2.95;;
71562;SDS011;59391;52.504;13.438;2023-08-08T14:16:54;5.50;;;3.27;;
71562;SDS011;59391;52.504;13.438;2023-08-08T14:19:20;4.70;;;3.20;;
71562;SDS011;59391;52.504;13.438;2023-08-08T14:21:46;5.87;;;3.10;;
71562;SDS011;59391;52.504;13.438;2023-08-08T14:24:11;5.32;;;3.30;;
71562;SDS011;59391;52.504;13.438;2023-08-08T14:26:37;6.10;;;3.67;;
71562;SDS011;59391;52.504;13.438;2023-08-08T14:29:03;5.35;;;3.25;;
71562;SDS011;59391;52.504;13.438;2023-08-08T14:31:29;6.60;;;3.60;;
71562;SDS011;59391;52.504;13.438;2023-08-08T14:33:55;5.47;;;3.42;;
71562;SDS011;59391;52.504;13.438;2023-08-08T14:36:20;5.83;;;3.47;;
71562;SDS011;59391;52.504;13.438;2023-08-08T14:38:46;6.82;;;3.58;;